Time;durP1;ratioP1;P1;durP2;ratioP2;P2;SDS_P1;SDS_P2;PMS_P1;PMS_P2;Temp;Humidity;BMP_temperature;BMP_pressure;BME280_temperature;BME280_humidity;BME280_pressure;Samples;Min_cycle;Max_cycle;Signal;HPM_P1;HPM_P2
2023/08/19 00:00:19;;;;;;;38.10;24.75;;;;;;;23.79;100.00;101133.34;5269741;28;20020;-72
2023/08/19 00:02:49;;;;;;;33.53;23.52;;;;;;;23.80;100.00;101125.97;5276436;28;20028;-73
2023/08/19 00:05:20;;;;;;;34.47;23.90;;;;;;;23.77;100.00;101130.88;5262732;28;20028;-72
2023/08/19 00:07:50;;;;;;;34.92;23.10;;;;;;;23.78;100.00;101132.53;5272120;28;20015;-73
2023/08/19 00:10:21;;;;;;;32.67;22.92;;;;;;;23.80;100.00;101126.81;5272233;28;20016;-72
2023/08/19 00:12:51;;;;;;;31.35;22.73;;;;;;;23.80;100.00;101125.97;5268453;28;20027;-72
2023/08/19 00:15:22;;;;;;;35.45;24.02;;;;;;;23.80;100.00;101132.31;5267404;28;20377;-73
2023/08/19 00:17:52;;;;;;;39.88;24.17;;;;;;;23.78;100.00;101126.22;5272548;28;20024;-72
2023/08/19 00:20:26;;;;;;;34.50;23.23;;;;;;;23.77;100.00;101128.13;5275954;28;20051;-72
2023/08/19 00:22:57;;;;;;;31.67;21.05;;;;;;;23.77;100.00;101128.13;5262615;28;20472;-71
2023/08/19 00:25:27;;;;;;;29.45;21.67;;;;;;;23.77;100.00;101122.66;5284349;28;20039;-72
2023/08/19 00:27:59;;;;;;;31.38;22.80;;;;;;;23.76;100.00;101115.53;5283894;28;20043;-72
2023/08/19 00:30:30;;;;;;;39.05;22.85;;;;;;;23.74;100.00;101120.41;5269467;28;20024;-72
2023/08/19 00:33:00;;;;;;;33.13;23.27;;;;;;;23.73;100.00;101121.50;5270015;28;20028;-72
2023/08/19 00:35:32;;;;;;;30.80;21.05;;;;;;;23.73;100.00;101121.50;5264821;28;20036;-72
2023/08/19 00:38:03;;;;;;;31.10;22.05;;;;;;;23.73;100.00;101117.91;5276732;28;20028;-72
2023/08/19 00:40:33;;;;;;;32.45;21.85;;;;;;;23.69;100.00;101112.09;5274868;28;20389;-71
2023/08/19 00:43:05;;;;;;;28.73;20.92;;;;;;;23.72;100.00;101111.63;5272655;28;20371;-71
2023/08/19 00:45:39;;;;;;;29.73;20.83;;;;;;;23.72;100.00;101105.31;5281546;28;20028;-72
2023/08/19 00:48:12;;;;;;;27.98;20.83;;;;;;;23.72;100.00;101113.53;5264957;28;20394;-72
2023/08/19 00:50:43;;;;;;;26.02;20.25;;;;;;;23.73;100.00;101105.06;5275373;28;20055;-72
2023/08/19 00:53:15;;;;;;;28.65;21.13;;;;;;;23.72;100.00;101108.06;5262661;28;20015;-72
2023/08/19 00:55:46;;;;;;;26.60;20.05;;;;;;;23.71;100.00;101101.75;5277715;28;20063;-72
2023/08/19 00:58:18;;;;;;;28.60;19.95;;;;;;;23.73;100.00;101101.50;5263693;28;20505;-72
2023/08/19 01:00:49;;;;;;;29.08;19.90;;;;;;;23.72;100.00;101097.09;5284361;28;20234;-72
2023/08/19 01:03:20;;;;;;;29.95;20.05;;;;;;;23.71;100.00;101089.97;5279200;28;20046;-72
2023/08/19 01:06:16;;;;;;;28.80;18.15;;;;;;;23.71;100.00;101096.25;5268090;28;20016;-72
2023/08/19 01:09:00;;;;;;;26.20;18.17;;;;;;;23.73;100.00;101087.78;5281125;28;20020;-72
2023/08/19 01:11:46;;;;;;;27.45;18.33;;;;;;;23.73;100.00;101088.63;5279887;28;20024;-71
2023/08/19 01:14:41;;;;;;;32.85;20.00;;;;;;;23.74;100.00;101086.72;5279252;28;20020;-72
2023/08/19 01:17:14;;;;;;;23.27;17.38;;;;;;;23.76;100.00;101081.81;5270962;28;20019;-72
2023/08/19 01:19:46;;;;;;;29.38;17.90;;;;;;;23.78;100.00;101082.41;5267382;28;20370;-72
2023/08/19 01:22:26;;;;;;;23.48;16.85;;;;;;;23.83;100.00;101073.44;5249680;28;20042;-72
2023/08/19 01:24:57;;;;;;;24.88;17.40;;;;;;;23.85;100.00;101083.09;5279148;28;20031;-71
2023/08/19 01:27:28;;;;;;;25.13;17.58;;;;;;;23.85;100.00;101083.09;5282124;28;20027;-71
2023/08/19 01:29:59;;;;;;;24.55;16.88;;;;;;;23.83;100.00;101068.78;5278729;28;20027;-72
2023/08/19 01:32:29;;;;;;;23.10;16.58;;;;;;;23.85;100.00;101066.66;5281234;28;20037;-72
2023/08/19 01:35:01;;;;;;;21.13;16.42;;;;;;;23.85;100.00;101063.91;5267984;28;20044;-72
2023/08/19 01:38:06;;;;;;;25.67;16.67;;;;;;;23.85;100.00;101049.38;5279770;28;20034;-71
2023/08/19 01:40:38;;;;;;;19.17;15.25;;;;;;;23.85;100.00;101055.69;5268633;28;20123;-72
2023/08/19 01:43:11;;;;;;;23.85;15.70;;;;;;;23.81;100.00;101060.00;5269021;28;20099;-71
2023/08/19 01:45:42;;;;;;;25.77;15.35;;;;;;;23.82;100.00;101060.81;5272597;28;20020;-72
2023/08/19 01:48:13;;;;;;;21.23;15.35;;;;;;;23.81;100.00;101067.41;5288274;28;20389;-72
2023/08/19 01:50:47;;;;;;;23.75;16.02;;;;;;;23.78;100.00;101055.84;5288099;28;20031;-71
2023/08/19 01:53:18;;;;;;;20.27;15.30;;;;;;;23.75;100.00;101058.25;5287002;28;20392;-72
2023/08/19 01:55:49;;;;;;;22.25;15.77;;;;;;;23.74;100.00;101051.94;5274744;28;20023;-72
2023/08/19 01:58:19;;;;;;;22.23;14.40;;;;;;;23.70;100.00;101048.06;5284604;28;20109;-71
2023/08/19 02:00:50;;;;;;;18.55;14.25;;;;;;;23.70;100.00;101048.06;5267251;28;20028;-71
2023/08/19 02:03:21;;;;;;;21.73;15.43;;;;;;;23.71;100.00;101051.63;5267453;28;20051;-71
2023/08/19 02:05:52;;;;;;;18.13;13.98;;;;;;;23.71;100.00;101046.13;5278278;28;20300;-71
2023/08/19 02:08:23;;;;;;;20.15;14.43;;;;;;;23.70;100.00;101047.22;5277666;28;20028;-72
2023/08/19 02:10:53;;;;;;;17.92;13.77;;;;;;;23.71;100.00;101046.13;5266031;28;20046;-72
2023/08/19 02:13:25;;;;;;;20.00;13.48;;;;;;;23.74;100.00;101051.09;5266687;28;20031;-71
2023/08/19 02:15:56;;;;;;;26.08;14.40;;;;;;;23.74;100.00;101045.63;5280308;28;20038;-72
2023/08/19 02:18:28;;;;;;;22.58;13.52;;;;;;;23.77;100.00;101048.69;5279563;28;20028;-72
2023/08/19 02:20:58;;;;;;;20.77;14.20;;;;;;;23.78;100.00;101044.06;5282743;28;20362;-71
2023/08/19 02:23:29;;;;;;;17.17;13.52;;;;;;;23.77;100.00;101048.69;5287401;28;20053;-71
2023/08/19 02:25:59;;;;;;;22.50;14.00;;;;;;;23.76;100.00;101048.97;5279105;28;20189;-71
2023/08/19 02:28:30;;;;;;;20.42;13.02;;;;;;;23.77;100.00;101037.75;5265666;28;20409;-72
2023/08/19 02:31:02;;;;;;;21.67;13.15;;;;;;;23.77;100.00;101040.47;5274731;28;20018;-71
2023/08/19 02:33:32;;;;;;;19.60;12.95;;;;;;;23.78;100.00;101038.56;5271272;28;20032;-71
2023/08/19 02:36:04;;;;;;;17.63;12.43;;;;;;;23.76;100.00;101038.00;5286511;28;20015;-70
2023/08/19 02:38:35;;;;;;;20.10;13.15;;;;;;;23.76;100.00;101038.81;5277919;28;20073;-73
2023/08/19 02:41:05;;;;;;;19.48;12.38;;;;;;;23.77;100.00;101036.91;5277821;28;20028;-72
2023/08/19 02:43:36;;;;;;;16.50;11.90;;;;;;;23.77;100.00;101031.44;5274694;28;20039;-72
2023/08/19 02:46:06;;;;;;;18.77;12.50;;;;;;;23.76;100.00;101030.63;5272382;28;20024;-71
2023/08/19 02:48:37;;;;;;;19.10;12.60;;;;;;;23.77;100.00;101028.69;5274013;28;20020;-72
2023/08/19 02:51:07;;;;;;;15.75;12.20;;;;;;;23.76;100.00;101036.09;5266194;28;20024;-72
2023/08/19 02:53:38;;;;;;;18.60;12.45;;;;;;;23.75;100.00;101037.19;5272660;28;20030;-71
2023/08/19 02:56:08;;;;;;;17.15;12.07;;;;;;;23.76;100.00;101030.63;5272466;28;20027;-72
2023/08/19 02:58:39;;;;;;;16.27;11.95;;;;;;;23.73;100.00;101031.09;5274819;28;20106;-72
2023/08/19 03:01:13;;;;;;;16.40;11.68;;;;;;;23.72;100.00;101026.72;5282741;28;20036;-71
2023/08/19 03:03:44;;;;;;;18.42;11.40;;;;;;;23.75;100.00;101033.59;5265125;28;20258;-72
2023/08/19 03:06:15;;;;;;;16.45;11.07;;;;;;;23.71;100.00;101036.00;5283864;28;20031;-72
2023/08/19 03:08:45;;;;;;;16.23;10.80;;;;;;;23.69;100.00;101035.41;5274701;28;20027;-72
2023/08/19 03:11:16;;;;;;;17.70;11.55;;;;;;;23.69;100.00;101029.09;5282836;28;20022;-72
2023/08/19 03:13:46;;;;;;;17.38;11.48;;;;;;;23.71;100.00;101029.69;5285047;28;20027;-72
2023/08/19 03:16:17;;;;;;;17.50;11.00;;;;;;;23.71;100.00;101026.97;5266985;28;20400;-73
2023/08/19 03:18:47;;;;;;;20.75;11.73;;;;;;;23.70;100.00;101036.25;5277289;28;20476;-72
2023/08/19 03:21:18;;;;;;;17.17;11.25;;;;;;;23.68;100.00;101038.41;5272519;28;20041;-72
2023/08/19 03:23:49;;;;;;;15.52;11.15;;;;;;;23.64;100.00;101034.50;5270786;28;20020;-73
2023/08/19 03:26:19;;;;;;;16.45;11.70;;;;;;;23.62;100.00;101033.91;5273656;28;20076;-72
2023/08/19 03:28:50;;;;;;;17.95;11.60;;;;;;;23.58;100.00;101027.25;5282053;28;20022;-72
2023/08/19 03:31:20;;;;;;;19.10;11.90;;;;;;;23.57;100.00;101031.91;5265485;28;20377;-72
2023/08/19 03:33:52;;;;;;;22.80;11.98;;;;;;;23.57;100.00;101022.84;5264348;28;20028;-72
2023/08/19 03:36:23;;;;;;;16.73;9.95;;;;;;;23.55;100.00;101011.34;5264324;28;20056;-72
2023/08/19 03:38:53;;;;;;;18.63;12.07;;;;;;;23.55;100.00;101012.16;5265347;28;20062;-72
2023/08/19 03:41:24;;;;;;;14.38;10.35;;;;;;;23.53;100.00;101025.25;5262872;28;20115;-72
2023/08/19 03:43:54;;;;;;;14.65;10.43;;;;;;;23.51;100.00;101016.47;5269379;28;20050;-71
2023/08/19 03:46:25;;;;;;;14.52;10.63;;;;;;;23.49;100.00;101024.09;5302716;27;20154;-72
2023/08/19 03:48:55;;;;;;;15.02;10.50;;;;;;;23.48;100.00;101027.91;5264670;28;20059;-72
2023/08/19 03:51:26;;;;;;;18.33;10.73;;;;;;;23.47;100.00;101031.72;5276933;28;20073;-71
2023/08/19 03:53:57;;;;;;;20.13;11.05;;;;;;;23.44;100.00;101021.25;5274110;28;20512;-72
2023/08/19 03:56:27;;;;;;;16.88;10.25;;;;;;;23.44;100.00;101026.72;5274938;28;20028;-71
2023/08/19 03:58:58;;;;;;;15.32;10.35;;;;;;;23.46;100.00;101033.63;5261465;28;20448;-73
2023/08/19 04:01:28;;;;;;;15.77;10.25;;;;;;;23.45;100.00;101029.25;5264029;28;20047;-71
2023/08/19 04:03:59;;;;;;;17.08;10.25;;;;;;;23.44;100.00;101032.22;5277347;28;20028;-72
2023/08/19 04:06:29;;;;;;;19.42;11.00;;;;;;;23.45;100.00;101034.72;5267282;28;20077;-72
2023/08/19 04:09:00;;;;;;;19.13;10.93;;;;;;;23.45;100.00;101037.47;5273221;28;20019;-71
2023/08/19 04:11:31;;;;;;;15.07;11.32;;;;;;;23.46;100.00;101035.53;5271638;28;20526;-72
2023/08/19 04:14:01;;;;;;;17.50;10.98;;;;;;;23.45;100.00;101040.19;5284477;28;20027;-71
2023/08/19 04:16:32;;;;;;;16.92;11.15;;;;;;;23.39;100.00;101041.16;5265446;28;20016;-72
2023/08/19 04:19:03;;;;;;;18.48;10.68;;;;;;;23.37;100.00;101043.31;5271134;28;20027;-71
2023/08/19 04:21:33;;;;;;;17.00;11.23;;;;;;;23.33;100.00;101042.16;5263542;28;20020;-72
2023/08/19 04:24:04;;;;;;;17.33;11.32;;;;;;;23.29;100.00;101040.97;5275889;28;20031;-72
2023/08/19 04:26:35;;;;;;;19.33;11.32;;;;;;;23.28;100.00;101044.78;5271788;28;20036;-72
2023/08/19 04:29:05;;;;;;;18.50;12.35;;;;;;;23.26;100.00;101045.06;5264973;28;20365;-72
2023/08/19 04:31:36;;;;;;;15.90;11.65;;;;;;;23.23;100.00;101045.53;5263804;28;20020;-72
2023/08/19 04:34:06;;;;;;;14.45;11.82;;;;;;;23.20;100.00;101043.31;5268933;28;20028;-71
2023/08/19 04:36:37;;;;;;;16.23;11.60;;;;;;;23.18;100.00;101041.88;5271157;28;20423;-72
2023/08/19 04:39:07;;;;;;;17.02;12.55;;;;;;;23.14;100.00;101038.78;5264561;28;20051;-71
2023/08/19 04:41:38;;;;;;;23.83;11.35;;;;;;;23.11;100.00;101033.00;5251455;28;20024;-71
2023/08/19 04:44:09;;;;;;;20.60;11.98;;;;;;;23.13;100.00;101036.31;5278032;28;20420;-72
2023/08/19 04:46:39;;;;;;;18.27;11.82;;;;;;;23.11;100.00;101054.88;5281869;27;20020;-72
2023/08/19 04:49:10;;;;;;;14.50;10.57;;;;;;;23.10;100.00;101058.69;5272410;28;20024;-71
2023/08/19 04:51:41;;;;;;;16.40;12.15;;;;;;;23.08;100.00;101060.84;5274216;28;20008;-71
2023/08/19 04:54:11;;;;;;;16.58;10.55;;;;;;;23.08;100.00;101050.72;5277821;28;20353;-72
2023/08/19 04:56:42;;;;;;;19.33;12.50;;;;;;;23.10;100.00;101058.69;5268638;28;20059;-71
2023/08/19 04:59:12;;;;;;;16.83;12.45;;;;;;;23.09;100.00;101057.84;5265521;28;20016;-71
2023/08/19 05:01:43;;;;;;;15.85;11.55;;;;;;;23.10;100.00;101054.06;5271733;28;20119;-70
2023/08/19 05:04:13;;;;;;;15.52;12.35;;;;;;;23.11;100.00;101060.34;5272476;28;20089;-71
2023/08/19 05:06:44;;;;;;;20.35;13.13;;;;;;;23.11;100.00;101061.19;5277441;28;20362;-72
2023/08/19 05:09:14;;;;;;;17.25;11.80;;;;;;;23.10;100.00;101061.44;5284186;28;20027;-71
2023/08/19 05:11:45;;;;;;;19.65;14.13;;;;;;;23.08;100.00;101067.13;5277574;28;20043;-71
2023/08/19 05:14:17;;;;;;;18.17;13.02;;;;;;;23.05;100.00;101070.38;5268448;28;20069;-71
2023/08/19 05:16:47;;;;;;;21.10;12.88;;;;;;;23.03;100.00;101075.25;5272387;28;20028;-71
2023/08/19 05:19:20;;;;;;;19.52;14.15;;;;;;;23.04;100.00;101074.16;5270642;28;20077;-70
2023/08/19 05:21:51;;;;;;;19.23;13.35;;;;;;;23.08;100.00;101079.97;5277284;28;20318;-71
2023/08/19 05:24:21;;;;;;;15.50;11.98;;;;;;;23.09;100.00;101085.19;5269011;28;20057;-71
2023/08/19 05:26:52;;;;;;;18.35;12.55;;;;;;;23.12;100.00;101101.16;5276331;28;20016;-71
2023/08/19 05:29:22;;;;;;;20.45;13.82;;;;;;;23.12;100.00;101094.84;5271394;28;20476;-71
2023/08/19 05:31:53;;;;;;;20.90;13.02;;;;;;;23.14;100.00;101096.25;5282500;28;20020;-71
2023/08/19 05:34:25;;;;;;;18.33;12.98;;;;;;;23.14;100.00;101093.50;5273484;28;20020;-70
2023/08/19 05:36:55;;;;;;;19.70;13.05;;;;;;;23.17;100.00;101100.41;5266573;28;20481;-71
2023/08/19 05:39:26;;;;;;;18.52;13.55;;;;;;;23.20;100.00;101106.25;5274664;28;20019;-71
2023/08/19 05:41:56;;;;;;;18.40;13.30;;;;;;;23.21;100.00;101113.38;5275935;28;20419;-71
2023/08/19 05:44:27;;;;;;;17.90;13.43;;;;;;;23.24;100.00;101110.16;5275023;28;20028;-71
2023/08/19 05:46:58;;;;;;;17.50;13.38;;;;;;;23.30;100.00;101121.22;5281032;28;20027;-70
2023/08/19 05:49:28;;;;;;;16.80;11.68;;;;;;;23.33;100.00;101118.78;5270149;28;20020;-71
2023/08/19 05:51:59;;;;;;;14.57;10.88;;;;;;;23.42;100.00;101117.34;5284374;28;20221;-71
2023/08/19 05:54:29;;;;;;;22.15;12.35;;;;;;;23.51;100.00;101124.09;5272151;28;20031;-71
2023/08/19 05:57:00;;;;;;;14.77;11.65;;;;;;;23.60;100.00;101123.69;5285358;28;20076;-71
2023/08/19 05:59:30;;;;;;;16.45;11.15;;;;;;;23.73;100.00;101131.63;5271500;28;20528;-71
2023/08/19 06:02:01;;;;;;;18.02;11.30;;;;;;;23.89;100.00;101127.22;5272292;28;20027;-71
2023/08/19 06:04:31;;;;;;;18.98;11.82;;;;;;;24.27;100.00;101132.81;5279040;28;20032;-71
2023/08/19 06:07:02;;;;;;;17.65;10.07;;;;;;;24.74;100.00;101137.06;5275006;28;20300;-71
2023/08/19 06:09:32;;;;;;;14.30;7.88;;;;;;;25.04;100.00;101140.22;5276596;28;20027;-71
2023/08/19 06:12:03;;;;;;;14.65;8.77;;;;;;;25.34;100.00;101151.88;5280419;28;20030;-71
2023/08/19 06:14:34;;;;;;;14.90;7.85;;;;;;;25.47;100.00;101149.56;5263975;28;20063;-70
2023/08/19 06:17:04;;;;;;;15.35;7.68;;;;;;;25.51;100.00;101158.94;5269076;28;20223;-70
2023/08/19 06:19:35;;;;;;;12.23;7.50;;;;;;;25.60;100.00;101155.72;5274683;28;20389;-71
2023/08/19 06:22:06;;;;;;;10.77;7.18;;;;;;;25.61;100.00;101160.97;5266929;28;20023;-71
2023/08/19 06:24:37;;;;;;;14.43;7.93;;;;;;;25.57;100.00;101152.41;5268134;28;20063;-70
2023/08/19 06:27:07;;;;;;;11.63;7.55;;;;;;;25.53;100.00;101162.25;5288414;28;20080;-71
2023/08/19 06:29:39;;;;;;;10.25;7.50;;;;;;;25.46;100.00;101158.06;5276210;28;20020;-70
2023/08/19 06:32:10;;;;;;;10.00;7.20;;;;;;;25.42;100.00;101165.16;5287403;28;20381;-70
2023/08/19 06:34:41;;;;;;;15.52;7.32;;;;;;;25.38;100.00;101172.25;5284774;28;20116;-71
2023/08/19 06:37:18;;;;;;;11.82;7.18;;;;;;;25.35;100.00;101183.72;5266879;28;20032;-70
2023/08/19 06:39:50;;;;;;;13.88;7.90;;;;;;;25.40;100.00;101186.53;5277830;28;20039;-70
2023/08/19 06:42:22;;;;;;;12.65;7.28;;;;;;;25.39;100.00;101185.69;5266576;28;20150;-72
2023/08/19 06:44:58;;;;;;;11.60;7.22;;;;;;;25.41;100.00;101190.97;5274947;28;20032;-71
2023/08/19 06:47:32;;;;;;;10.55;7.18;;;;;;;25.43;100.00;101184.09;5272316;28;20031;-71
2023/08/19 06:50:03;;;;;;;15.73;7.63;;;;;;;25.48;100.00;101194.31;5276088;28;20028;-71
2023/08/19 06:52:34;;;;;;;9.82;7.32;;;;;;;25.54;100.00;101202.34;5272905;28;20537;-71
2023/08/19 06:55:06;;;;;;;13.05;6.90;;;;;;;25.51;100.00;101216.63;5278045;28;20020;-71
2023/08/19 06:57:47;;;;;;;12.93;7.43;;;;;;;25.60;100.00;101203.25;5279234;28;20184;-71
2023/08/19 07:00:22;;;;;;;12.63;7.55;;;;;;;25.67;100.00;101190.16;5268854;28;20028;-71
2023/08/19 07:02:53;;;;;;;10.40;7.07;;;;;;;25.73;100.00;101189.09;5269142;28;20032;-70
2023/08/19 07:05:26;;;;;;;12.25;6.97;;;;;;;25.79;100.00;101201.00;5271398;28;20046;-70
2023/08/19 07:07:57;;;;;;;16.45;8.40;;;;;;;25.85;100.00;101207.38;5281586;28;20035;-70
2023/08/19 07:10:28;;;;;;;11.73;6.88;;;;;;;25.84;100.00;101220.31;5270012;28;20036;-72
2023/08/19 07:12:59;;;;;;;10.80;7.15;;;;;;;25.93;100.00;101235.25;5280918;28;20023;-72
2023/08/19 07:15:30;;;;;;;10.95;7.18;;;;;;;26.04;100.00;101228.75;5273831;28;20092;-72
2023/08/19 07:18:02;;;;;;;12.43;7.32;;;;;;;26.16;100.00;101241.53;5274460;28;20103;-72
2023/08/19 07:20:34;;;;;;;11.60;7.18;;;;;;;26.23;100.00;101228.38;5270253;28;20024;-72
2023/08/19 07:23:06;;;;;;;16.88;7.35;;;;;;;26.37;100.00;101223.28;5269535;28;20043;-73
2023/08/19 07:25:37;;;;;;;12.40;7.25;;;;;;;26.39;100.00;101224.66;5267049;28;20032;-72
2023/08/19 07:28:11;;;;;;;15.75;7.90;;;;;;;26.38;100.00;101222.19;5269732;28;20177;-71
2023/08/19 07:30:41;;;;;;;12.90;6.95;;;;;;;26.31;100.00;101231.50;5265211;28;20050;-72
2023/08/19 07:33:12;;;;;;;16.50;7.43;;;;;;;26.20;100.00;101237.97;5268674;28;20028;-72
2023/08/19 07:35:43;;;;;;;10.43;7.18;;;;;;;26.15;100.00;101256.34;5267942;28;20069;-72
2023/08/19 07:38:14;;;;;;;14.80;7.60;;;;;;;26.19;100.00;101257.50;5273364;28;20042;-71
2023/08/19 07:40:45;;;;;;;12.23;7.60;;;;;;;26.24;100.00;101269.34;5281321;28;20023;-71
2023/08/19 07:43:15;;;;;;;15.95;7.55;;;;;;;26.27;100.00;101266.09;5288498;28;20355;-71
2023/08/19 07:45:46;;;;;;;10.35;7.18;;;;;;;26.35;100.00;101270.28;5289943;27;20024;-71
2023/08/19 07:48:16;;;;;;;14.88;7.35;;;;;;;26.48;100.00;101269.88;5265394;28;20016;-71
2023/08/19 07:50:47;;;;;;;18.27;7.30;;;;;;;26.60;100.00;101272.44;5283746;28;20008;-71
2023/08/19 07:53:17;;;;;;;12.90;7.65;;;;;;;26.74;100.00;101268.16;5286489;28;20031;-71
2023/08/19 07:55:48;;;;;;;9.52;7.00;;;;;;;26.87;100.00;101286.16;5280744;28;20081;-71
2023/08/19 07:58:18;;;;;;;13.80;7.40;;;;;;;26.99;100.00;101285.97;5278044;28;20027;-71
2023/08/19 08:00:49;;;;;;;12.82;7.28;;;;;;;27.06;100.00;101283.78;5276818;28;20484;-71
2023/08/19 08:03:19;;;;;;;14.77;7.95;;;;;;;27.08;100.00;101287.16;5278916;28;20508;-72
2023/08/19 08:05:50;;;;;;;9.05;7.68;;;;;;;27.07;100.00;101296.50;5265024;28;20027;-71
2023/08/19 08:08:20;;;;;;;13.48;7.72;;;;;;;27.16;100.00;101299.56;5269670;28;20055;-71
2023/08/19 08:10:52;;;;;;;13.85;8.40;;;;;;;27.19;100.00;101304.56;5274046;28;20099;-70
2023/08/19 08:13:23;;;;;;;11.85;7.88;;;;;;;27.25;100.00;101303.50;5274714;28;20046;-71
2023/08/19 08:15:53;;;;;;;11.32;7.13;;;;;;;27.30;100.00;101293.34;5286013;28;20020;-71
2023/08/19 08:18:24;;;;;;;14.68;8.38;;;;;;;27.35;100.00;101301.63;5271937;28;20076;-71
2023/08/19 08:20:55;;;;;;;17.50;8.13;;;;;;;27.39;100.00;101298.34;5269981;28;20016;-71
2023/08/19 08:23:25;;;;;;;13.50;7.82;;;;;;;27.38;100.00;101315.97;5247107;28;20035;-71
2023/08/19 08:25:56;;;;;;;13.15;7.90;;;;;;;27.34;100.00;101312.91;5277816;28;20023;-72
2023/08/19 08:28:27;;;;;;;12.63;8.25;;;;;;;27.24;100.00;101327.47;5247042;28;20043;-72
2023/08/19 08:30:58;;;;;;;19.08;8.07;;;;;;;27.23;100.00;101328.56;5277210;28;20073;-71
2023/08/19 08:33:29;;;;;;;14.68;8.63;;;;;;;27.21;100.00;101332.66;5264926;28;20074;-71
2023/08/19 08:36:00;;;;;;;14.75;8.23;;;;;;;27.10;100.00;101340.84;5265317;28;20051;-71
2023/08/19 08:38:31;;;;;;;13.23;7.63;;;;;;;27.09;100.00;101344.72;5268401;28;20032;-72
2023/08/19 08:41:03;;;;;;;13.27;8.55;;;;;;;27.23;100.00;101349.78;5278419;28;20072;-71
2023/08/19 08:43:34;;;;;;;15.88;8.05;;;;;;;27.45;100.00;101355.13;5278379;28;20405;-72
2023/08/19 08:46:04;;;;;;;10.77;7.32;;;;;;;27.67;100.00;101375.09;5279648;28;20035;-71
2023/08/19 08:48:35;;;;;;;13.68;7.85;;;;;;;27.90;100.00;101368.34;5264802;28;20035;-71
2023/08/19 08:51:06;;;;;;;12.20;7.13;;;;;;;28.10;100.00;101371.16;5265068;28;20073;-72
2023/08/19 08:53:37;;;;;;;15.68;7.57;;;;;;;28.33;100.00;101382.84;5264721;28;20031;-72
2023/08/19 08:56:08;;;;;;;13.63;7.50;;;;;;;28.66;100.00;101376.00;5276255;28;20024;-72
2023/08/19 08:58:38;;;;;;;13.20;7.43;;;;;;;28.84;100.00;101383.75;5270290;28;20023;-72
2023/08/19 09:01:09;;;;;;;12.13;6.90;;;;;;;28.88;100.00;101395.91;5285614;28;20027;-72
2023/08/19 09:03:41;;;;;;;11.52;6.50;;;;;;;28.87;100.00;101401.72;5265558;28;20441;-71
2023/08/19 09:06:31;;;;;;;12.50;6.53;;;;;;;28.69;100.00;101399.50;5265758;28;20051;-72
2023/08/19 09:09:03;;;;;;;12.50;6.45;;;;;;;28.37;100.00;101406.88;5265384;28;20020;-72
2023/08/19 09:11:36;;;;;;;8.23;5.93;;;;;;;28.19;100.00;101410.09;5269744;28;20469;-71
2023/08/19 09:14:19;;;;;;;10.15;5.70;;;;;;;28.12;100.00;101407.59;5274127;28;20360;-71
2023/08/19 09:16:50;;;;;;;9.88;6.60;;;;;;;28.10;100.00;101409.78;5276581;28;20508;-72
2023/08/19 09:19:20;;;;;;;7.88;5.88;;;;;;;28.21;100.00;101410.66;5277934;28;20019;-72
2023/08/19 09:21:51;;;;;;;11.88;6.35;;;;;;;28.23;100.00;101413.16;5277328;28;20028;-72
2023/08/19 09:24:22;;;;;;;11.98;6.10;;;;;;;28.29;100.00;101429.44;5264721;28;20497;-71
2023/08/19 09:27:09;;;;;;;15.32;6.03;;;;;;;28.32;100.00;101431.66;5276090;28;20030;-71
2023/08/19 09:29:58;;;;;;;11.32;5.93;;;;;;;28.34;100.00;101429.50;5283116;28;20036;-71
2023/08/19 09:32:30;;;;;;;10.57;6.40;;;;;;;28.29;100.00;101432.19;5278918;28;20027;-71
2023/08/19 09:35:17;;;;;;;10.32;6.07;;;;;;;28.29;100.00;101442.41;5267860;28;20358;-71
2023/08/19 09:37:47;;;;;;;9.93;6.50;;;;;;;28.29;100.00;101442.41;5273201;28;20050;-72
2023/08/19 09:40:21;;;;;;;11.27;6.43;;;;;;;28.22;100.00;101441.84;5275719;28;20205;-71
2023/08/19 09:42:51;;;;;;;10.35;7.55;;;;;;;28.27;100.00;101450.13;5268226;28;20031;-72
2023/08/19 09:45:25;;;;;;;10.77;7.30;;;;;;;28.31;100.00;101454.00;5278054;28;20072;-72
2023/08/19 09:47:56;;;;;;;8.10;6.53;;;;;;;28.30;100.00;101461.44;5279428;28;20381;-72
2023/08/19 09:50:27;;;;;;;11.68;6.03;;;;;;;28.24;100.00;101469.97;5267764;28;20369;-73
2023/08/19 09:52:59;;;;;;;10.35;6.40;;;;;;;28.20;100.00;101461.41;5278214;28;20063;-72
2023/08/19 09:55:32;;;;;;;9.63;6.80;;;;;;;28.06;100.00;101463.84;5274231;28;20495;-72
2023/08/19 09:58:02;;;;;;;12.27;6.70;;;;;;;28.00;100.00;101470.41;5275966;28;20020;-71
2023/08/19 10:00:33;;;;;;;11.93;7.68;;;;;;;27.81;100.00;101470.03;5285871;28;20076;-72
2023/08/19 10:03:04;;;;;;;11.45;7.10;;;;;;;27.72;100.00;101482.66;5288107;28;20024;-72
2023/08/19 10:05:39;;;;;;;8.82;6.30;;;;;;;27.65;100.00;101481.19;5288269;28;20020;-72
2023/08/19 10:08:19;;;;;;;11.30;6.35;;;;;;;27.55;100.00;101488.28;5254720;28;20074;-72
2023/08/19 10:10:50;;;;;;;12.48;6.30;;;;;;;27.51;100.00;101489.94;5276081;28;20089;-71
2023/08/19 10:13:22;;;;;;;10.05;6.55;;;;;;;27.46;100.00;101498.16;5270448;28;20063;-72
2023/08/19 10:15:57;;;;;;;10.05;6.05;;;;;;;27.48;100.00;101493.19;5266990;28;20032;-72
2023/08/19 10:18:32;;;;;;;10.15;6.10;;;;;;;27.58;100.00;101509.81;5267258;28;20024;-72
2023/08/19 10:21:07;;;;;;;9.45;5.88;;;;;;;27.50;100.00;101515.78;5256449;28;20078;-72
2023/08/19 10:23:39;;;;;;;;;;;;;;;27.39;100.00;101521.50;5266965;28;20028;-71
2023/08/19 10:26:10;;;;;;;13.98;6.22;;;;;;;27.25;100.00;101510.06;5267090;28;19938;-71
2023/08/19 10:28:41;;;;;;;8.82;5.57;;;;;;;27.15;100.00;101504.47;5272924;28;20024;-72
2023/08/19 10:31:13;;;;;;;13.63;6.13;;;;;;;27.09;100.00;101507.19;5272885;28;20372;-71
2023/08/19 10:33:46;;;;;;;13.48;6.30;;;;;;;27.10;100.00;101503.31;5260934;28;20446;-72
2023/08/19 10:36:18;;;;;;;17.55;6.82;;;;;;;26.99;100.00;101503.47;5273726;28;20118;-72
2023/08/19 10:38:56;;;;;;;14.55;5.93;;;;;;;26.92;100.00;101516.63;5286648;28;20027;-72
2023/08/19 10:41:30;;;;;;;9.02;6.30;;;;;;;26.72;100.00;101534.56;5274321;28;20107;-72
2023/08/19 10:44:03;;;;;;;10.57;6.28;;;;;;;26.57;100.00;101551.72;5266122;28;20056;-72
2023/08/19 10:46:37;;;;;;;18.70;7.32;;;;;;;26.45;100.00;101559.25;5274078;28;20028;-71
2023/08/19 10:49:12;;;;;;;10.90;5.88;;;;;;;26.31;100.00;101555.19;5285680;28;20030;-72
2023/08/19 10:52:03;;;;;;;11.38;6.25;;;;;;;26.24;100.00;101562.78;5262689;28;20030;-72
2023/08/19 10:54:38;;;;;;;10.45;6.38;;;;;;;26.15;100.00;101584.38;5285354;28;20015;-72
2023/08/19 10:57:27;;;;;;;10.82;7.05;;;;;;;25.96;100.00;101622.31;5293972;27;20465;-72
2023/08/19 11:00:00;;;;;;;12.50;7.20;;;;;;;25.99;100.00;101637.47;5280700;27;20028;-73
2023/08/19 11:02:31;;;;;;;11.60;7.20;;;;;;;25.94;100.00;101635.47;5294497;27;20045;-71
2023/08/19 11:05:03;;;;;;;14.88;7.82;;;;;;;25.89;100.00;101627.13;5276925;27;20106;-71
2023/08/19 11:07:33;;;;;;;10.55;7.38;;;;;;;25.93;100.00;101628.31;5291998;27;20230;-71
2023/08/19 11:10:04;;;;;;;10.48;7.47;;;;;;;25.97;100.00;101625.91;5280150;27;20483;-71
2023/08/19 11:12:35;;;;;;;12.32;6.90;;;;;;;26.05;100.00;101633.72;5279365;28;20384;-71
2023/08/19 11:15:06;;;;;;;12.90;7.03;;;;;;;26.13;100.00;101614.06;5276035;28;20477;-71
2023/08/19 11:17:37;;;;;;;10.27;7.07;;;;;;;26.20;100.00;101617.44;5280476;28;20099;-72
2023/08/19 11:20:10;;;;;;;12.70;6.15;;;;;;;26.40;100.00;101638.09;5282772;27;20161;-72
2023/08/19 11:22:43;;;;;;;11.50;6.45;;;;;;;26.73;100.00;101624.28;5279110;27;20106;-73
2023/08/19 11:25:15;;;;;;;11.27;6.63;;;;;;;26.81;100.00;101593.59;5285983;27;20067;-73
2023/08/19 11:27:46;;;;;;;12.48;6.72;;;;;;;27.06;100.00;101603.19;5279892;27;20384;-73